Terminal Aerodrome Forecast
Issued by NWS

Home | Current Version | Previous Version | Text Only | Print | Product List | Glossary On
Versions: 1 2 3 4 5 6 7 8 9 10 11 12
000
FTUS46 KLOX 142300 RRA
TAFPMD
TAF
KPMD 142345Z 1500/1524 21012KT P6SM SCT070
     FM150500 19007KT P6SM SKC
     FM151300 VRB03KT P6SM SKC
     FM151800 06005KT P6SM SCT070
     FM152300 23010KT P6SM SCT070=

USA.gov is the U.S. government's official web portal to all federal, state and local government web resources and services.